createdAt,value
2017-08-29T00:02:11.153Z,21.00
2017-08-29T00:04:38.217Z,21.00
2017-08-29T00:07:05.313Z,20.90
2017-08-29T00:09:32.381Z,20.90
2017-08-29T00:11:59.490Z,20.90
2017-08-29T00:14:26.558Z,20.80
2017-08-29T00:16:53.657Z,20.80
2017-08-29T00:19:20.720Z,20.80
2017-08-29T00:21:47.809Z,20.70
2017-08-29T00:24:14.873Z,20.70
2017-08-29T00:26:41.961Z,20.70
2017-08-29T00:29:09.033Z,20.80
2017-08-29T00:31:36.129Z,20.70
2017-08-29T00:34:03.201Z,20.70
2017-08-29T00:36:30.302Z,20.70
2017-08-29T00:38:57.373Z,20.70
2017-08-29T00:41:24.476Z,20.70
2017-08-29T00:43:51.545Z,20.70
2017-08-29T00:46:18.641Z,20.80
2017-08-29T00:48:45.722Z,20.60
2017-08-29T00:51:12.808Z,20.50
2017-08-29T00:53:39.877Z,20.50
2017-08-29T00:56:06.973Z,20.50
2017-08-29T00:58:34.041Z,20.40
2017-08-29T01:01:01.137Z,20.30
2017-08-29T01:03:28.205Z,20.40
2017-08-29T01:05:55.293Z,20.40
2017-08-29T01:08:22.361Z,20.40
2017-08-29T01:10:49.449Z,20.40
2017-08-29T01:13:16.513Z,20.40
2017-08-29T01:15:43.613Z,20.30
2017-08-29T01:18:10.682Z,20.20
2017-08-29T01:20:37.777Z,20.20
2017-08-29T01:23:04.837Z,20.20
2017-08-29T01:25:31.925Z,20.10
2017-08-29T01:27:58.995Z,20.10
2017-08-29T01:30:26.090Z,20.20
2017-08-29T01:32:53.176Z,20.00
2017-08-29T01:35:20.244Z,19.90
2017-08-29T01:37:47.341Z,19.90
2017-08-29T01:40:14.413Z,19.90
2017-08-29T01:42:42.271Z,19.90
2017-08-29T01:45:09.337Z,19.90
2017-08-29T01:47:36.430Z,19.90
2017-08-29T01:50:03.493Z,20.00
2017-08-29T01:52:30.593Z,20.00
2017-08-29T01:54:57.662Z,20.00
2017-08-29T01:57:24.757Z,19.90
2017-08-29T01:59:52.588Z,20.00
2017-08-29T02:02:19.684Z,19.90
2017-08-29T02:04:47.517Z,19.80
2017-08-29T02:07:14.615Z,19.80
2017-08-29T02:09:41.680Z,19.70
2017-08-29T02:12:08.765Z,19.70
2017-08-29T02:14:35.838Z,19.70
2017-08-29T02:17:02.924Z,19.80
2017-08-29T02:19:29.994Z,19.70
2017-08-29T02:21:57.093Z,19.70
2017-08-29T02:24:24.161Z,19.70
2017-08-29T02:26:51.230Z,19.60
2017-08-29T02:29:18.321Z,19.60
2017-08-29T02:31:45.400Z,19.60
2017-08-29T02:34:12.490Z,19.60
2017-08-29T02:36:39.565Z,19.50
2017-08-29T02:39:06.658Z,19.50
2017-08-29T02:41:33.725Z,19.50
2017-08-29T02:44:00.829Z,19.50
2017-08-29T02:46:27.903Z,19.40
2017-08-29T02:48:54.997Z,19.40
2017-08-29T02:51:22.073Z,19.40
2017-08-29T02:53:49.944Z,19.40
2017-08-29T02:56:17.022Z,19.40
2017-08-29T02:58:44.109Z,19.40
2017-08-29T03:01:11.182Z,19.30
2017-08-29T03:03:38.277Z,19.30
2017-08-29T03:06:05.348Z,19.30
2017-08-29T03:08:32.436Z,19.30
2017-08-29T03:11:00.265Z,19.20
2017-08-29T03:13:27.364Z,19.20
2017-08-29T03:15:54.432Z,19.20
2017-08-29T03:18:21.518Z,19.20
2017-08-29T03:20:48.584Z,19.10
2017-08-29T03:23:16.445Z,19.10
2017-08-29T03:25:43.514Z,19.10
2017-08-29T03:28:10.605Z,19.10
2017-08-29T03:30:37.672Z,19.20
2017-08-29T03:33:04.769Z,19.20
2017-08-29T03:35:31.837Z,19.30
2017-08-29T03:37:58.900Z,19.20
2017-08-29T03:40:25.997Z,19.20
2017-08-29T03:42:53.065Z,19.10
2017-08-29T03:45:20.165Z,19.10
2017-08-29T03:47:47.237Z,19.10
2017-08-29T03:50:14.326Z,19.00
2017-08-29T03:52:41.389Z,18.90
2017-08-29T03:55:08.486Z,18.80
2017-08-29T03:57:35.553Z,18.90
2017-08-29T04:00:02.652Z,18.90
2017-08-29T04:02:29.721Z,19.00
2017-08-29T04:04:56.813Z,19.00
2017-08-29T04:07:23.890Z,19.00
2017-08-29T04:09:50.986Z,18.90
2017-08-29T04:12:18.055Z,19.00
2017-08-29T04:14:45.147Z,18.90
2017-08-29T04:17:12.213Z,18.90
2017-08-29T04:19:39.306Z,18.80
2017-08-29T04:22:06.380Z,18.80
2017-08-29T04:24:33.481Z,18.70
2017-08-29T04:27:00.564Z,18.70
2017-08-29T04:29:27.665Z,18.80
2017-08-29T04:31:54.736Z,18.70
2017-08-29T04:34:21.835Z,18.60
2017-08-29T04:36:48.914Z,18.60
2017-08-29T04:39:16.769Z,18.50
2017-08-29T04:41:43.843Z,18.50
2017-08-29T04:44:10.929Z,18.60
2017-08-29T04:46:37.994Z,18.50
2017-08-29T04:49:05.086Z,18.50
2017-08-29T04:51:32.917Z,18.50
2017-08-29T04:54:00.015Z,18.50
2017-08-29T04:56:27.076Z,18.50
2017-08-29T04:58:54.163Z,18.40
2017-08-29T05:01:21.314Z,18.40
2017-08-29T05:03:48.405Z,18.40
2017-08-29T05:06:15.475Z,18.50
2017-08-29T05:08:42.562Z,18.50
2017-08-29T05:11:09.635Z,18.60
2017-08-29T05:13:36.725Z,18.60
2017-08-29T05:16:03.794Z,18.60
2017-08-29T05:18:30.889Z,18.50
2017-08-29T05:20:57.953Z,18.60
2017-08-29T05:23:25.041Z,18.60
2017-08-29T05:25:52.105Z,18.70
2017-08-29T05:28:19.202Z,18.70
2017-08-29T05:30:46.276Z,18.70
2017-08-29T05:33:13.369Z,18.70
2017-08-29T05:35:41.200Z,18.80
2017-08-29T05:38:08.288Z,18.80
2017-08-29T05:40:35.353Z,19.00
2017-08-29T05:43:02.449Z,19.00
2017-08-29T05:45:29.517Z,19.20
2017-08-29T05:47:56.589Z,19.40
2017-08-29T05:50:23.681Z,19.40
2017-08-29T05:52:50.749Z,19.50
2017-08-29T05:55:17.840Z,19.50
2017-08-29T05:57:44.912Z,19.70
2017-08-29T06:00:12.008Z,20.00
2017-08-29T06:02:39.072Z,20.30
2017-08-29T06:05:06.936Z,20.30
2017-08-29T06:07:34.005Z,20.20
2017-08-29T06:10:01.100Z,20.60
2017-08-29T06:12:28.176Z,21.10
2017-08-29T06:14:55.269Z,21.30
2017-08-29T06:17:22.338Z,21.40
2017-08-29T06:19:49.428Z,21.10
2017-08-29T06:22:16.488Z,21.00
2017-08-29T06:24:43.578Z,21.00
2017-08-29T06:27:10.641Z,21.10
2017-08-29T06:29:37.725Z,21.20
2017-08-29T06:32:05.554Z,21.40
2017-08-29T06:34:32.641Z,21.40
2017-08-29T06:37:00.474Z,21.40
2017-08-29T06:39:27.564Z,21.30
2017-08-29T06:41:54.634Z,21.60
2017-08-29T06:44:21.725Z,21.70
2017-08-29T06:46:48.792Z,21.80
2017-08-29T06:49:15.881Z,21.80
2017-08-29T06:51:42.958Z,22.10
2017-08-29T06:54:10.049Z,22.30
2017-08-29T06:56:37.118Z,22.40
2017-08-29T06:59:04.187Z,22.50
2017-08-29T07:01:31.277Z,22.70
2017-08-29T07:03:58.344Z,22.90
2017-08-29T07:06:25.437Z,23.00
2017-08-29T07:08:52.508Z,22.90
2017-08-29T07:11:19.592Z,23.20
2017-08-29T07:13:47.425Z,23.50
2017-08-29T07:16:14.516Z,23.50
2017-08-29T07:18:41.579Z,23.50
2017-08-29T07:21:08.669Z,23.40
2017-08-29T07:23:35.741Z,23.60
2017-08-29T07:26:02.829Z,23.60
2017-08-29T07:28:29.892Z,23.70
2017-08-29T07:30:56.988Z,23.80
2017-08-29T07:33:24.820Z,23.90
2017-08-29T07:35:51.912Z,23.90
2017-08-29T07:38:18.977Z,24.00
2017-08-29T07:40:46.064Z,24.20
2017-08-29T07:43:13.128Z,24.00
2017-08-29T07:45:40.198Z,24.20
2017-08-29T07:48:07.290Z,24.30
2017-08-29T07:50:34.353Z,24.20
2017-08-29T07:53:01.449Z,24.40
2017-08-29T07:55:28.519Z,24.50
2017-08-29T07:57:55.609Z,24.50
2017-08-29T08:00:22.681Z,24.80
2017-08-29T08:02:49.768Z,24.90
2017-08-29T08:05:16.833Z,25.10
2017-08-29T08:07:43.929Z,25.20
2017-08-29T08:10:11.765Z,25.30
2017-08-29T08:12:38.852Z,25.30
2017-08-29T08:15:05.923Z,25.50
2017-08-29T08:17:33.013Z,25.60
2017-08-29T08:20:00.077Z,25.80
2017-08-29T08:22:27.164Z,25.90
2017-08-29T08:24:54.237Z,25.90
2017-08-29T08:27:21.365Z,25.90
2017-08-29T08:29:48.433Z,26.10
2017-08-29T08:32:15.528Z,26.10
2017-08-29T08:34:42.605Z,26.30
2017-08-29T08:37:09.681Z,26.20
2017-08-29T08:39:36.773Z,26.20
2017-08-29T08:42:03.838Z,26.30
2017-08-29T08:44:31.059Z,26.60
2017-08-29T08:46:58.141Z,26.50
2017-08-29T08:49:25.997Z,26.90
2017-08-29T08:51:53.065Z,26.80
2017-08-29T08:54:20.153Z,26.80
2017-08-29T08:56:47.243Z,26.50
2017-08-29T08:59:14.341Z,27.00
2017-08-29T09:01:41.402Z,27.00
2017-08-29T09:04:08.489Z,27.10
2017-08-29T09:06:35.566Z,26.80
2017-08-29T09:09:02.666Z,26.90
2017-08-29T09:11:29.736Z,27.30
2017-08-29T09:13:56.827Z,27.40
2017-08-29T09:16:23.897Z,27.10
2017-08-29T09:18:50.992Z,27.30
2017-08-29T09:21:18.821Z,27.70
2017-08-29T09:23:45.908Z,27.70
2017-08-29T09:26:13.736Z,27.70
2017-08-29T09:28:40.832Z,27.70
2017-08-29T09:31:07.897Z,27.40
2017-08-29T09:33:34.966Z,27.80
2017-08-29T09:36:02.065Z,27.90
2017-08-29T09:38:29.137Z,28.10
2017-08-29T09:40:56.228Z,28.40
2017-08-29T09:43:23.301Z,28.60
2017-08-29T09:45:50.397Z,28.00
2017-08-29T09:48:17.469Z,28.60
2017-08-29T09:50:45.335Z,28.80
2017-08-29T09:53:12.405Z,28.80
2017-08-29T09:55:39.497Z,28.80
2017-08-29T09:58:06.569Z,28.90
2017-08-29T10:00:33.661Z,28.80
2017-08-29T10:03:00.729Z,28.70
2017-08-29T10:05:27.820Z,29.30
2017-08-29T10:07:54.885Z,29.30
2017-08-29T10:10:21.972Z,29.10
2017-08-29T10:12:49.041Z,29.40
2017-08-29T10:15:16.107Z,29.70
2017-08-29T10:17:43.200Z,29.80
2017-08-29T10:20:11.037Z,30.30
2017-08-29T10:22:38.125Z,30.20
2017-08-29T10:25:05.193Z,30.30
2017-08-29T10:27:32.288Z,30.50
2017-08-29T10:29:59.349Z,30.50
2017-08-29T10:32:26.437Z,30.60
2017-08-29T10:34:53.502Z,30.70
2017-08-29T10:37:20.593Z,30.60
2017-08-29T10:39:47.669Z,30.60
2017-08-29T10:42:14.757Z,30.50
2017-08-29T10:44:41.828Z,31.20
2017-08-29T10:47:08.929Z,31.30
2017-08-29T10:49:35.992Z,31.40
2017-08-29T10:52:03.077Z,31.30
2017-08-29T10:54:30.144Z,30.90
2017-08-29T10:56:58.001Z,31.00
2017-08-29T10:59:25.066Z,31.00
2017-08-29T11:01:52.158Z,30.70
2017-08-29T11:04:19.220Z,30.80
2017-08-29T11:06:46.284Z,31.20
2017-08-29T11:09:13.373Z,31.40
2017-08-29T11:11:40.433Z,31.50
2017-08-29T11:14:07.521Z,30.90
2017-08-29T11:16:35.353Z,31.40
2017-08-29T11:19:02.445Z,31.30
2017-08-29T11:21:29.510Z,31.60
2017-08-29T11:23:56.599Z,31.30
2017-08-29T11:26:23.669Z,31.80
2017-08-29T11:28:50.761Z,31.90
2017-08-29T11:31:17.838Z,31.90
2017-08-29T11:33:44.929Z,31.90
2017-08-29T11:36:12.000Z,32.20
2017-08-29T11:38:39.089Z,32.10
2017-08-29T11:41:06.155Z,32.00
2017-08-29T11:43:33.245Z,32.00
2017-08-29T11:46:00.318Z,32.10
2017-08-29T11:48:27.413Z,32.20
2017-08-29T11:50:54.480Z,32.00
2017-08-29T11:53:21.552Z,32.20
2017-08-29T11:55:48.653Z,32.50
2017-08-29T11:58:15.722Z,32.40
2017-08-29T12:00:42.814Z,32.60
2017-08-29T12:03:09.881Z,32.50
2017-08-29T12:05:36.969Z,32.70
2017-08-29T12:08:04.041Z,32.30
2017-08-29T12:10:31.137Z,32.60
2017-08-29T12:12:58.209Z,32.60
2017-08-29T12:15:25.303Z,32.60
2017-08-29T12:17:52.368Z,32.70
2017-08-29T12:20:19.456Z,32.80
2017-08-29T12:22:46.526Z,33.20
2017-08-29T12:25:14.380Z,33.30
2017-08-29T12:27:41.450Z,33.30
2017-08-29T12:30:08.549Z,33.30
2017-08-29T12:32:35.618Z,33.10
2017-08-29T12:35:02.708Z,33.30
2017-08-29T12:37:30.545Z,33.50
2017-08-29T12:39:57.642Z,33.50
2017-08-29T12:42:24.709Z,33.20
2017-08-29T12:44:51.801Z,33.40
2017-08-29T12:47:18.864Z,33.50
2017-08-29T12:49:45.924Z,33.30
2017-08-29T12:52:13.013Z,33.70
2017-08-29T12:54:40.084Z,33.90
2017-08-29T12:57:07.182Z,33.60
2017-08-29T12:59:34.249Z,33.80
2017-08-29T13:02:01.348Z,33.90
2017-08-29T13:04:28.413Z,33.80
2017-08-29T13:06:55.504Z,32.80
2017-08-29T13:09:22.569Z,32.90
2017-08-29T13:11:49.666Z,32.80
2017-08-29T13:14:16.729Z,33.30
2017-08-29T13:16:43.825Z,33.80
2017-08-29T13:19:10.888Z,33.80
2017-08-29T13:21:37.994Z,34.00
2017-08-29T13:24:05.065Z,34.10
2017-08-29T13:26:32.156Z,34.10
2017-08-29T13:28:59.220Z,33.80
2017-08-29T13:31:26.318Z,33.80
2017-08-29T13:33:53.384Z,33.50
2017-08-29T13:36:20.445Z,33.40
2017-08-29T13:38:47.533Z,33.50
2017-08-29T13:41:14.601Z,33.80
2017-08-29T13:43:42.458Z,33.40
2017-08-29T13:46:09.525Z,33.30
2017-08-29T13:48:36.613Z,33.00
2017-08-29T13:51:03.693Z,33.10
2017-08-29T13:53:30.781Z,33.60
2017-08-29T13:55:57.848Z,33.60
2017-08-29T13:58:24.937Z,33.70
2017-08-29T14:00:52.015Z,33.30
2017-08-29T14:03:19.109Z,33.60
2017-08-29T14:05:46.177Z,33.80
2017-08-29T14:08:13.267Z,33.50
2017-08-29T14:10:40.341Z,33.30
2017-08-29T14:13:07.433Z,33.50
2017-08-29T14:15:34.501Z,33.50
2017-08-29T14:18:01.592Z,33.60
2017-08-29T14:20:28.660Z,33.60
2017-08-29T14:22:55.757Z,33.30
2017-08-29T14:25:23.613Z,33.50
2017-08-29T14:27:50.681Z,33.40
2017-08-29T14:30:17.776Z,33.40
2017-08-29T14:32:44.843Z,33.20
2017-08-29T14:35:11.941Z,33.40
2017-08-29T14:37:39.031Z,33.60
2017-08-29T14:40:06.121Z,33.80
2017-08-29T14:42:33.194Z,33.80
2017-08-29T14:45:00.284Z,33.90
2017-08-29T14:47:33.221Z,33.60
2017-08-29T14:50:00.309Z,33.80
2017-08-29T14:52:27.378Z,33.80
2017-08-29T14:54:54.469Z,33.70
2017-08-29T14:57:21.533Z,33.80
2017-08-29T14:59:48.629Z,33.90
2017-08-29T15:02:15.697Z,33.90
2017-08-29T15:04:42.793Z,33.80
2017-08-29T15:07:09.866Z,33.90
2017-08-29T15:09:36.940Z,34.40
2017-08-29T15:12:04.035Z,36.50
2017-08-29T15:14:31.106Z,38.20
2017-08-29T15:16:58.199Z,39.10
2017-08-29T15:19:25.266Z,39.10
2017-08-29T15:21:52.355Z,39.60
2017-08-29T15:24:19.416Z,39.50
2017-08-29T15:26:47.275Z,39.00
2017-08-29T15:29:14.337Z,39.00
2017-08-29T15:31:42.201Z,38.30
2017-08-29T15:34:09.264Z,38.20
2017-08-29T15:36:36.349Z,37.20
2017-08-29T15:39:03.407Z,36.50
2017-08-29T15:41:30.497Z,35.90
2017-08-29T15:43:57.563Z,35.30
2017-08-29T15:46:24.649Z,35.00
2017-08-29T15:48:51.713Z,34.80
2017-08-29T15:51:18.803Z,34.50
2017-08-29T15:53:45.876Z,34.50
2017-08-29T15:56:13.117Z,34.20
2017-08-29T15:58:40.945Z,33.80
2017-08-29T16:01:08.212Z,33.70
2017-08-29T16:03:35.393Z,33.80
2017-08-29T16:06:02.529Z,33.70
2017-08-29T16:08:29.625Z,33.50
2017-08-29T16:10:56.697Z,33.30
2017-08-29T16:13:23.793Z,33.20
2017-08-29T16:15:50.872Z,33.20
2017-08-29T16:18:19.351Z,33.10
2017-08-29T16:20:46.508Z,33.00
2017-08-29T16:23:13.607Z,32.90
2017-08-29T16:25:40.681Z,32.70
2017-08-29T16:28:07.776Z,32.50
2017-08-29T16:30:34.844Z,32.10
2017-08-29T16:33:03.648Z,32.00
2017-08-29T16:35:32.291Z,31.90
2017-08-29T16:37:59.906Z,31.90
2017-08-29T16:40:29.075Z,31.80
2017-08-29T16:42:57.954Z,31.50
2017-08-29T16:45:25.351Z,31.30
2017-08-29T16:47:52.583Z,31.20
2017-08-29T16:50:19.653Z,31.10
2017-08-29T16:52:46.749Z,30.90
2017-08-29T16:55:13.829Z,30.90
2017-08-29T16:57:40.893Z,30.90
2017-08-29T17:00:07.991Z,30.80
2017-08-29T17:02:35.064Z,30.60
2017-08-29T17:05:02.152Z,30.50
2017-08-29T17:07:29.216Z,30.40
2017-08-29T17:09:56.308Z,30.30
2017-08-29T17:12:24.288Z,30.20
2017-08-29T17:14:51.992Z,30.10
2017-08-29T17:17:19.409Z,30.00
2017-08-29T17:19:49.322Z,30.00
2017-08-29T17:22:17.543Z,29.80
2017-08-29T17:24:45.978Z,29.60
2017-08-29T17:27:14.867Z,29.50
2017-08-29T17:29:42.428Z,29.40
2017-08-29T17:32:10.698Z,29.50
2017-08-29T17:34:40.099Z,29.40
2017-08-29T17:37:07.870Z,29.20
2017-08-29T17:39:35.898Z,29.20
2017-08-29T17:42:04.118Z,29.10
2017-08-29T17:44:33.108Z,29.10
2017-08-29T17:47:00.670Z,29.00
2017-08-29T17:49:30.017Z,28.70
2017-08-29T17:51:57.188Z,28.70
2017-08-29T17:54:25.761Z,28.60
2017-08-29T17:56:54.415Z,28.40
2017-08-29T17:59:21.525Z,28.50
2017-08-29T18:01:48.628Z,28.40
2017-08-29T18:04:16.759Z,28.30
2017-08-29T18:06:45.337Z,28.20
2017-08-29T18:09:12.481Z,28.10
2017-08-29T18:11:39.576Z,28.00
2017-08-29T18:14:06.644Z,27.80
2017-08-29T18:16:33.741Z,27.70
2017-08-29T18:19:00.809Z,27.60
2017-08-29T18:21:27.897Z,27.60
2017-08-29T18:23:55.732Z,27.40
2017-08-29T18:26:24.078Z,27.40
2017-08-29T18:28:51.549Z,27.40
2017-08-29T18:31:18.993Z,27.30
2017-08-29T18:33:47.636Z,27.20
2017-08-29T18:36:14.849Z,27.20
2017-08-29T18:38:43.310Z,27.10
2017-08-29T18:41:11.623Z,27.00
2017-08-29T18:43:39.965Z,26.90
2017-08-29T18:46:07.076Z,26.90
2017-08-29T18:48:34.948Z,26.60
2017-08-29T18:51:02.021Z,26.60
2017-08-29T18:53:29.109Z,26.50
2017-08-29T18:55:56.176Z,26.30
2017-08-29T18:58:23.267Z,26.30
2017-08-29T19:00:50.346Z,26.40
2017-08-29T19:03:17.470Z,26.30
2017-08-29T19:05:44.534Z,26.30
2017-08-29T19:08:11.629Z,26.20
2017-08-29T19:10:38.696Z,26.20
2017-08-29T19:13:05.799Z,26.10
2017-08-29T19:15:32.865Z,26.00
2017-08-29T19:18:00.064Z,26.00
2017-08-29T19:20:27.417Z,26.00
2017-08-29T19:22:54.545Z,25.80
2017-08-29T19:25:22.597Z,25.80
2017-08-29T19:27:50.451Z,25.60
2017-08-29T19:30:17.862Z,25.60
2017-08-29T19:32:45.097Z,25.50
2017-08-29T19:35:12.187Z,25.60
2017-08-29T19:37:39.250Z,25.50
2017-08-29T19:40:06.336Z,25.50
2017-08-29T19:42:33.601Z,25.40
2017-08-29T19:45:00.688Z,25.40
2017-08-29T19:47:27.752Z,25.30
2017-08-29T19:49:54.845Z,25.30
2017-08-29T19:52:22.006Z,25.20
2017-08-29T19:54:49.097Z,25.10
2017-08-29T19:57:16.202Z,25.10
2017-08-29T19:59:43.288Z,25.00
2017-08-29T20:02:10.355Z,25.00
2017-08-29T20:04:37.480Z,25.00
2017-08-29T20:07:04.545Z,25.00
2017-08-29T20:09:31.632Z,25.00
2017-08-29T20:11:58.696Z,24.90
2017-08-29T20:14:25.780Z,24.90
2017-08-29T20:16:52.995Z,24.90
2017-08-29T20:19:20.116Z,24.70
2017-08-29T20:21:47.181Z,24.70
2017-08-29T20:24:14.240Z,24.70
2017-08-29T20:26:41.330Z,24.50
2017-08-29T20:29:08.392Z,24.50
2017-08-29T20:31:35.486Z,24.50
2017-08-29T20:34:02.548Z,24.40
2017-08-29T20:36:29.671Z,24.50
2017-08-29T20:38:56.735Z,24.50
2017-08-29T20:41:23.824Z,24.50
2017-08-29T20:43:50.897Z,24.50
2017-08-29T20:46:18.757Z,24.50
2017-08-29T20:48:46.592Z,24.40
2017-08-29T20:51:13.689Z,24.40
2017-08-29T20:53:40.755Z,24.30
2017-08-29T20:56:07.848Z,24.20
2017-08-29T20:58:34.917Z,24.10
2017-08-29T21:01:02.006Z,24.10
2017-08-29T21:03:29.068Z,24.10
2017-08-29T21:05:56.165Z,24.20
2017-08-29T21:08:23.225Z,24.20
2017-08-29T21:10:50.325Z,24.10
2017-08-29T21:13:17.394Z,24.10
2017-08-29T21:15:44.456Z,24.10
2017-08-29T21:18:12.312Z,24.00
2017-08-29T21:20:39.382Z,24.00
2017-08-29T21:23:06.471Z,24.00
2017-08-29T21:25:33.533Z,23.90
2017-08-29T21:28:00.621Z,23.80
2017-08-29T21:30:27.691Z,23.90
2017-08-29T21:32:54.780Z,23.70
2017-08-29T21:35:21.845Z,23.60
2017-08-29T21:37:48.936Z,23.50
2017-08-29T21:40:15.997Z,23.40
2017-08-29T21:42:43.097Z,23.60
2017-08-29T21:45:10.157Z,23.50
2017-08-29T21:47:37.240Z,23.40
2017-08-29T21:50:04.300Z,23.30
2017-08-29T21:52:31.388Z,23.30
2017-08-29T21:54:58.449Z,23.30
2017-08-29T21:57:26.304Z,23.30
2017-08-29T21:59:53.365Z,23.20
2017-08-29T22:02:21.225Z,23.30
2017-08-29T22:04:49.057Z,23.30
2017-08-29T22:07:16.157Z,23.20
2017-08-29T22:09:43.245Z,23.20
2017-08-29T22:12:10.308Z,23.20
2017-08-29T22:14:37.401Z,23.10
2017-08-29T22:17:05.228Z,22.90
2017-08-29T22:19:32.317Z,22.90
2017-08-29T22:22:00.149Z,22.90
2017-08-29T22:24:27.245Z,22.90
2017-08-29T22:26:54.308Z,23.00
2017-08-29T22:29:21.393Z,22.90
2017-08-29T22:31:48.461Z,22.90
2017-08-29T22:34:15.548Z,22.80
2017-08-29T22:36:42.610Z,22.80
2017-08-29T22:39:09.697Z,22.80
2017-08-29T22:41:36.761Z,22.80
2017-08-29T22:44:03.855Z,22.80
2017-08-29T22:46:30.937Z,22.70
2017-08-29T22:48:58.033Z,22.60
2017-08-29T22:51:25.093Z,22.60
2017-08-29T22:53:52.166Z,22.60
2017-08-29T22:56:19.261Z,22.60
2017-08-29T22:58:47.088Z,22.60
2017-08-29T23:01:14.177Z,22.60
2017-08-29T23:03:41.244Z,22.50
2017-08-29T23:06:08.336Z,22.50
2017-08-29T23:08:35.409Z,22.50
2017-08-29T23:11:02.497Z,22.50
2017-08-29T23:13:29.562Z,22.50
2017-08-29T23:15:56.653Z,22.40
2017-08-29T23:18:23.717Z,22.50
2017-08-29T23:20:50.805Z,22.50
2017-08-29T23:23:17.868Z,22.40
2017-08-29T23:25:44.957Z,22.30
2017-08-29T23:28:12.031Z,22.40
2017-08-29T23:30:39.124Z,22.40
2017-08-29T23:33:06.186Z,22.30
2017-08-29T23:35:33.273Z,22.30
2017-08-29T23:38:00.340Z,22.30
2017-08-29T23:40:27.434Z,22.30
2017-08-29T23:42:54.497Z,22.20
2017-08-29T23:45:22.333Z,22.20
2017-08-29T23:47:49.425Z,22.20
2017-08-29T23:50:16.493Z,22.20
2017-08-29T23:52:43.581Z,22.20
2017-08-29T23:55:10.645Z,22.10
2017-08-29T23:57:37.732Z,22.10
